Time;durP1;ratioP1;P1;durP2;ratioP2;P2;SDS_P1;SDS_P2;PMS_P1;PMS_P2;Temp;Humidity;BMP_temperature;BMP_pressure;BME280_temperature;BME280_humidity;BME280_pressure;Samples;Min_cycle;Max_cycle;Signal;HPM_P1;HPM_P2
2023/07/01 00:01:42;;;;;;;16.05;14.38;;;17.40;99.90;;;;;;5114300;28;20102;-65
2023/07/01 00:04:08;;;;;;;22.00;15.52;;;17.40;99.90;;;;;;5114489;28;20089;-65
2023/07/01 00:06:34;;;;;;;17.15;14.15;;;17.30;99.90;;;;;;5114270;28;20461;-65
2023/07/01 00:09:00;;;;;;;17.67;13.90;;;17.30;99.90;;;;;;5114601;28;20027;-65
2023/07/01 00:11:28;;;;;;;17.60;15.63;;;17.30;99.90;;;;;;5114224;28;20091;-65
2023/07/01 00:13:54;;;;;;;18.10;15.25;;;17.20;99.90;;;;;;5114134;28;20052;-65
2023/07/01 00:16:20;;;;;;;17.50;13.65;;;17.20;99.90;;;;;;5118640;27;20046;-65
2023/07/01 00:18:47;;;;;;;23.23;14.38;;;17.20;99.90;;;;;;5138874;27;20027;-65
2023/07/01 00:21:13;;;;;;;15.93;13.10;;;17.20;99.90;;;;;;5138681;27;20107;-65
2023/07/01 00:23:39;;;;;;;20.27;14.15;;;17.10;99.90;;;;;;5138610;27;20164;-65
2023/07/01 00:26:05;;;;;;;15.35;13.73;;;17.10;99.90;;;;;;5138767;27;20068;-65
2023/07/01 00:28:30;;;;;;;18.92;14.48;;;17.10;99.90;;;;;;5138677;27;20488;-65
2023/07/01 00:30:56;;;;;;;17.65;14.18;;;17.10;99.90;;;;;;5120175;27;20031;-65
2023/07/01 00:33:22;;;;;;;16.27;12.65;;;17.10;99.90;;;;;;5138560;27;20042;-65
2023/07/01 00:35:48;;;;;;;15.13;13.27;;;17.10;99.90;;;;;;5119838;27;20349;-64
2023/07/01 00:38:14;;;;;;;14.88;13.27;;;17.10;99.90;;;;;;5138433;27;20030;-65
2023/07/01 00:40:40;;;;;;;21.58;14.25;;;17.10;99.90;;;;;;5138455;27;20114;-65
2023/07/01 00:43:06;;;;;;;18.98;14.35;;;17.00;99.90;;;;;;5138147;27;20151;-65
2023/07/01 00:45:32;;;;;;;19.38;14.18;;;17.00;99.90;;;;;;5128498;27;20427;-65
2023/07/01 00:47:58;;;;;;;18.02;13.75;;;17.00;99.90;;;;;;5117738;28;20034;-64
2023/07/01 00:50:24;;;;;;;18.42;14.15;;;17.00;99.90;;;;;;5117285;28;20039;-65
2023/07/01 00:52:50;;;;;;;16.65;14.40;;;16.90;99.90;;;;;;5099183;28;20038;-64
2023/07/01 00:55:16;;;;;;;18.38;14.63;;;17.00;99.90;;;;;;5117645;28;20031;-65
2023/07/01 00:57:43;;;;;;;16.40;14.00;;;16.90;99.90;;;;;;5117484;28;20059;-65
2023/07/01 01:00:11;;;;;;;18.13;14.07;;;16.90;99.90;;;;;;5099024;28;20027;-65
2023/07/01 01:02:55;;;;;;;15.43;13.32;;;16.90;99.90;;;;;;5099068;28;20032;-65
2023/07/01 01:05:55;;;;;;;21.45;14.45;;;16.90;99.90;;;;;;5098930;28;20084;-65
2023/07/01 01:08:28;;;;;;;17.27;13.95;;;16.90;99.90;;;;;;5117273;28;20063;-65
2023/07/01 01:10:57;;;;;;;17.67;14.35;;;16.80;99.90;;;;;;5098794;28;20397;-65
2023/07/01 01:13:26;;;;;;;15.38;13.75;;;16.80;99.90;;;;;;5117028;28;20026;-64
2023/07/01 01:15:53;;;;;;;16.00;14.18;;;16.80;99.90;;;;;;5117273;28;20024;-64
2023/07/01 01:18:22;;;;;;;19.20;14.63;;;16.80;99.90;;;;;;5116712;28;20039;-64
2023/07/01 01:20:50;;;;;;;20.70;15.10;;;16.80;99.90;;;;;;5117118;28;20031;-64
2023/07/01 01:23:35;;;;;;;18.38;13.50;;;16.80;99.90;;;;;;5098598;28;20080;-65
2023/07/01 01:26:13;;;;;;;17.95;14.07;;;16.80;99.90;;;;;;5116855;28;20028;-64
2023/07/01 01:28:39;;;;;;;16.38;14.43;;;16.90;99.90;;;;;;5116321;28;20118;-64
2023/07/01 01:31:05;;;;;;;19.58;13.85;;;16.80;99.90;;;;;;5116544;28;20461;-64
2023/07/01 01:33:31;;;;;;;19.27;14.50;;;16.70;99.90;;;;;;5116814;28;20023;-64
2023/07/01 01:36:21;;;;;;;17.08;14.43;;;16.70;99.90;;;;;;5116708;28;20488;-64
2023/07/01 01:38:48;;;;;;;17.35;14.48;;;16.70;99.90;;;;;;5098243;28;20086;-64
2023/07/01 01:41:30;;;;;;;22.15;14.32;;;16.70;99.90;;;;;;5098194;28;20503;-64
2023/07/01 01:44:04;;;;;;;19.23;14.35;;;16.70;99.90;;;;;;5116820;28;20035;-64
2023/07/01 01:46:33;;;;;;;18.67;13.85;;;16.70;99.90;;;;;;5115740;27;20031;-64
2023/07/01 01:49:03;;;;;;;20.73;14.23;;;16.70;99.90;;;;;;5118684;27;20019;-64
2023/07/01 01:51:31;;;;;;;15.85;14.02;;;16.70;99.90;;;;;;5136970;27;20020;-64
2023/07/01 01:53:58;;;;;;;19.77;15.07;;;16.70;99.90;;;;;;5136856;27;20385;-64
2023/07/01 01:56:26;;;;;;;16.88;13.52;;;16.70;99.90;;;;;;5118368;27;20079;-64
2023/07/01 01:58:52;;;;;;;19.13;14.77;;;16.80;99.90;;;;;;5118342;27;20425;-64
2023/07/01 02:01:18;;;;;;;17.63;13.45;;;16.70;99.90;;;;;;5118114;27;20027;-64
2023/07/01 02:03:47;;;;;;;15.23;13.60;;;16.70;99.90;;;;;;5136814;27;20043;-64
2023/07/01 02:06:13;;;;;;;17.23;14.68;;;16.70;99.90;;;;;;5118100;27;20176;-64
2023/07/01 02:08:39;;;;;;;18.73;14.15;;;16.60;99.90;;;;;;5118123;27;20054;-64
2023/07/01 02:11:05;;;;;;;17.45;14.25;;;16.60;99.90;;;;;;5136382;27;20056;-64
2023/07/01 02:13:31;;;;;;;19.92;14.85;;;16.60;99.90;;;;;;5118128;27;20106;-64
2023/07/01 02:15:58;;;;;;;15.70;13.02;;;16.60;99.90;;;;;;5136415;27;20023;-64
2023/07/01 02:18:23;;;;;;;19.05;14.02;;;16.60;99.90;;;;;;5118151;27;20039;-64
2023/07/01 02:20:49;;;;;;;20.58;14.85;;;16.70;99.90;;;;;;5117900;27;20396;-64
2023/07/01 02:23:15;;;;;;;17.50;14.35;;;16.70;99.90;;;;;;5136270;27;20027;-64
2023/07/01 02:25:42;;;;;;;18.83;14.98;;;16.70;99.90;;;;;;5136360;27;20507;-64
2023/07/01 02:28:08;;;;;;;16.77;14.60;;;16.80;99.90;;;;;;5136183;27;20023;-64
2023/07/01 02:30:35;;;;;;;20.80;14.35;;;16.80;99.90;;;;;;5136106;27;20038;-64
2023/07/01 02:33:02;;;;;;;20.77;14.45;;;16.80;99.90;;;;;;5136358;27;20031;-64
2023/07/01 02:35:29;;;;;;;20.92;14.25;;;16.80;99.90;;;;;;5117384;27;20410;-65
2023/07/01 02:37:55;;;;;;;20.02;15.07;;;16.80;99.90;;;;;;5135972;27;20046;-64
2023/07/01 02:40:21;;;;;;;19.60;14.63;;;16.80;99.90;;;;;;5135464;27;20023;-64
2023/07/01 02:42:47;;;;;;;20.80;15.60;;;16.80;99.90;;;;;;5136360;27;20027;-64
2023/07/01 02:45:13;;;;;;;22.27;16.63;;;16.80;99.90;;;;;;5135929;27;20034;-64
2023/07/01 02:47:39;;;;;;;22.75;15.88;;;16.90;99.90;;;;;;5117597;27;20023;-64
2023/07/01 02:50:06;;;;;;;20.23;14.98;;;16.80;99.90;;;;;;5135774;27;20038;-64
2023/07/01 02:52:32;;;;;;;18.45;15.23;;;16.80;99.90;;;;;;5117362;27;20031;-64
2023/07/01 02:54:58;;;;;;;20.10;14.65;;;16.80;99.90;;;;;;5117506;27;20069;-64
2023/07/01 02:57:24;;;;;;;19.38;14.27;;;16.80;99.90;;;;;;5135654;27;20019;-64
2023/07/01 02:59:51;;;;;;;20.17;14.95;;;16.80;99.90;;;;;;5135791;27;20511;-65
2023/07/01 03:02:17;;;;;;;16.88;14.40;;;16.90;99.90;;;;;;5135651;27;20052;-65
2023/07/01 03:04:43;;;;;;;18.15;14.30;;;16.90;99.90;;;;;;5117325;28;20037;-64
2023/07/01 03:07:09;;;;;;;20.42;15.07;;;16.90;99.90;;;;;;5135721;27;20059;-64
2023/07/01 03:09:35;;;;;;;21.55;16.23;;;17.00;99.90;;;;;;5135588;27;20107;-65
2023/07/01 03:12:00;;;;;;;19.45;15.07;;;16.90;99.90;;;;;;5135472;27;20031;-65
2023/07/01 03:14:27;;;;;;;19.00;15.00;;;16.90;99.90;;;;;;5117527;27;20031;-65
2023/07/01 03:16:53;;;;;;;20.80;15.75;;;16.90;99.90;;;;;;5135481;27;20046;-65
2023/07/01 03:19:19;;;;;;;20.65;14.57;;;17.00;99.90;;;;;;5135440;27;20023;-64
2023/07/01 03:21:46;;;;;;;19.88;15.13;;;17.00;99.90;;;;;;5135621;28;20023;-65
2023/07/01 03:24:13;;;;;;;21.55;15.32;;;17.10;99.90;;;;;;5117014;28;20034;-65
2023/07/01 03:26:39;;;;;;;19.42;14.65;;;17.10;99.90;;;;;;5135739;28;20023;-65
2023/07/01 03:29:05;;;;;;;16.50;13.80;;;17.10;99.90;;;;;;5135484;28;20043;-64
2023/07/01 03:31:32;;;;;;;17.88;14.55;;;17.10;99.90;;;;;;5135321;28;20043;-65
2023/07/01 03:33:59;;;;;;;19.98;14.88;;;17.10;99.90;;;;;;5135337;28;20027;-65
2023/07/01 03:36:25;;;;;;;20.40;14.07;;;17.20;99.90;;;;;;5135410;28;20023;-65
2023/07/01 03:38:51;;;;;;;19.23;14.15;;;17.30;99.90;;;;;;5135387;28;20027;-64
2023/07/01 03:41:16;;;;;;;19.27;15.07;;;17.30;99.90;;;;;;5135093;28;20042;-64
2023/07/01 03:43:42;;;;;;;19.85;14.43;;;17.30;99.90;;;;;;5135391;28;20110;-65
2023/07/01 03:46:09;;;;;;;18.02;12.93;;;17.30;99.90;;;;;;5120175;28;20039;-64
2023/07/01 03:48:35;;;;;;;16.88;13.48;;;17.20;99.90;;;;;;5114777;28;20107;-64
2023/07/01 03:51:01;;;;;;;18.13;13.30;;;17.30;99.90;;;;;;5117165;28;20066;-64
2023/07/01 03:53:27;;;;;;;18.90;13.35;;;17.30;99.90;;;;;;5118892;28;20103;-64
2023/07/01 03:55:53;;;;;;;18.65;13.52;;;17.30;99.90;;;;;;5118540;28;20034;-64
2023/07/01 03:58:24;;;;;;;17.88;13.80;;;17.30;99.90;;;;;;5118780;28;20023;-64
2023/07/01 04:00:50;;;;;;;20.38;13.27;;;17.30;99.90;;;;;;5118252;28;20102;-64
2023/07/01 04:03:16;;;;;;;18.67;13.40;;;17.30;99.90;;;;;;5118439;28;20446;-65
2023/07/01 04:05:42;;;;;;;19.55;12.85;;;17.40;99.90;;;;;;5118471;28;20024;-64
2023/07/01 04:08:07;;;;;;;16.58;12.25;;;17.40;99.90;;;;;;5118362;28;20028;-64
2023/07/01 04:10:33;;;;;;;19.52;12.98;;;17.50;99.90;;;;;;5118266;28;20036;-65
2023/07/01 04:13:00;;;;;;;15.23;12.45;;;17.50;99.90;;;;;;5118285;28;20020;-64
2023/07/01 04:15:27;;;;;;;18.73;11.95;;;17.60;99.90;;;;;;5118253;28;20051;-64
2023/07/01 04:17:54;;;;;;;16.95;12.40;;;17.60;99.90;;;;;;5118155;28;20062;-65
2023/07/01 04:20:20;;;;;;;18.08;12.85;;;17.60;99.90;;;;;;5117999;28;20024;-65
2023/07/01 04:22:46;;;;;;;19.23;13.20;;;17.70;99.90;;;;;;5118051;28;20043;-64
2023/07/01 04:25:12;;;;;;;21.38;13.55;;;17.70;99.90;;;;;;5118094;28;20058;-65
2023/07/01 04:27:38;;;;;;;18.08;13.00;;;17.70;99.90;;;;;;5118059;28;20055;-64
2023/07/01 04:30:08;;;;;;;21.73;13.30;;;17.70;99.90;;;;;;5117874;28;20043;-65
2023/07/01 04:32:35;;;;;;;19.70;14.18;;;17.80;99.90;;;;;;5118168;28;20027;-65
2023/07/01 04:35:01;;;;;;;19.83;13.27;;;17.80;99.90;;;;;;5117928;28;20081;-65
2023/07/01 04:37:27;;;;;;;18.67;13.57;;;17.90;99.90;;;;;;5117717;28;20020;-65
2023/07/01 04:39:53;;;;;;;21.77;13.32;;;17.90;99.90;;;;;;5117746;28;20027;-64
2023/07/01 04:42:19;;;;;;;22.10;12.88;;;17.90;99.90;;;;;;5117850;28;20503;-64
2023/07/01 04:44:53;;;;;;;18.10;12.48;;;17.90;99.90;;;;;;5120586;27;20031;-64
2023/07/01 04:47:23;;;;;;;18.23;13.05;;;18.00;99.90;;;;;;5138290;27;20023;-65
2023/07/01 04:49:52;;;;;;;17.90;13.17;;;18.10;99.90;;;;;;5138294;27;20023;-64
2023/07/01 04:52:22;;;;;;;16.60;12.93;;;18.10;99.90;;;;;;5138013;27;20321;-65
2023/07/01 04:54:49;;;;;;;19.15;12.55;;;18.10;99.90;;;;;;5138209;27;20031;-64
2023/07/01 04:57:15;;;;;;;15.75;12.38;;;18.20;99.90;;;;;;5138097;27;20086;-64
2023/07/01 04:59:41;;;;;;;16.98;12.73;;;18.20;99.90;;;;;;5137987;27;20472;-64
2023/07/01 05:02:07;;;;;;;14.57;11.90;;;18.10;99.90;;;;;;5137268;27;20033;-64
2023/07/01 05:04:33;;;;;;;17.83;12.07;;;18.10;99.90;;;;;;5137888;27;20031;-65
2023/07/01 05:06:59;;;;;;;17.52;12.35;;;18.10;99.90;;;;;;5137857;27;20110;-65
2023/07/01 05:09:25;;;;;;;19.38;11.82;;;18.10;99.90;;;;;;5137742;27;20380;-65
2023/07/01 05:11:52;;;;;;;14.98;12.30;;;18.10;99.90;;;;;;5137644;27;20084;-65
2023/07/01 05:14:18;;;;;;;21.58;12.98;;;18.10;99.90;;;;;;5137656;27;20026;-65
2023/07/01 05:16:44;;;;;;;19.08;13.20;;;18.20;99.90;;;;;;5137532;27;20057;-65
2023/07/01 05:19:09;;;;;;;20.10;12.48;;;18.20;99.90;;;;;;5137610;27;20035;-65
2023/07/01 05:21:36;;;;;;;21.88;12.90;;;18.30;99.90;;;;;;5137558;27;20122;-65
2023/07/01 05:24:04;;;;;;;15.82;11.88;;;18.40;99.90;;;;;;5137387;27;20027;-65
2023/07/01 05:26:30;;;;;;;24.15;12.13;;;18.40;99.90;;;;;;5137532;27;20460;-65
2023/07/01 05:28:57;;;;;;;19.25;12.38;;;18.40;99.90;;;;;;5137396;27;20240;-65
2023/07/01 05:31:23;;;;;;;22.23;12.98;;;18.50;99.90;;;;;;5137385;27;20461;-65
2023/07/01 05:33:49;;;;;;;26.88;14.95;;;18.60;99.90;;;;;;5137337;27;20072;-65
2023/07/01 05:36:15;;;;;;;25.80;16.38;;;18.60;99.90;;;;;;5137244;27;20032;-65
2023/07/01 05:38:41;;;;;;;27.08;15.93;;;18.60;99.90;;;;;;5137292;27;20106;-65
2023/07/01 05:41:07;;;;;;;23.13;16.50;;;18.60;99.90;;;;;;5137222;27;20029;-64
2023/07/01 05:43:33;;;;;;;29.52;18.02;;;18.60;99.90;;;;;;5137231;27;20496;-64
2023/07/01 05:45:58;;;;;;;23.52;15.93;;;18.70;99.90;;;;;;5123785;27;20036;-65
2023/07/01 05:48:24;;;;;;;28.08;16.08;;;18.70;99.90;;;;;;5116466;28;20058;-65
2023/07/01 05:50:50;;;;;;;22.55;17.00;;;18.70;99.90;;;;;;5116329;28;20032;-64
2023/07/01 05:53:16;;;;;;;19.67;15.80;;;18.80;99.90;;;;;;5116382;28;20398;-65
2023/07/01 05:55:42;;;;;;;21.95;16.75;;;18.90;99.90;;;;;;5116328;28;20028;-64
2023/07/01 05:58:08;;;;;;;23.90;16.90;;;19.10;99.90;;;;;;5116353;28;20077;-64
2023/07/01 06:00:34;;;;;;;35.75;18.02;;;19.00;99.90;;;;;;5116295;28;20149;-64
2023/07/01 06:03:00;;;;;;;31.10;14.75;;;19.00;99.90;;;;;;5116184;28;20024;-64
2023/07/01 06:05:26;;;;;;;20.90;14.93;;;19.20;99.90;;;;;;5116221;28;20024;-64
2023/07/01 06:07:52;;;;;;;22.65;15.57;;;19.60;99.90;;;;;;5116032;28;20031;-64
2023/07/01 06:10:18;;;;;;;20.60;14.73;;;19.70;99.90;;;;;;5115942;28;20031;-64
2023/07/01 06:12:43;;;;;;;37.85;19.58;;;20.00;99.90;;;;;;5115854;28;20036;-65
2023/07/01 06:15:10;;;;;;;37.88;21.83;;;20.10;99.90;;;;;;5115385;28;20023;-65
2023/07/01 06:17:36;;;;;;;30.95;17.30;;;20.30;99.90;;;;;;5115627;28;20575;-65
2023/07/01 06:20:02;;;;;;;32.58;18.02;;;20.40;99.90;;;;;;5115815;28;20020;-65
2023/07/01 06:22:28;;;;;;;27.98;17.08;;;20.70;99.90;;;;;;5115875;28;20058;-65
2023/07/01 06:24:54;;;;;;;27.40;16.17;;;20.90;99.90;;;;;;5115777;28;20032;-65
2023/07/01 06:27:19;;;;;;;22.75;14.80;;;21.20;99.90;;;;;;5115873;28;20055;-65
2023/07/01 06:29:45;;;;;;;29.00;13.55;;;21.50;99.90;;;;;;5115778;28;20070;-65
2023/07/01 06:32:11;;;;;;;27.95;14.10;;;21.60;99.90;;;;;;5115473;28;20035;-65
2023/07/01 06:34:37;;;;;;;29.10;13.77;;;21.70;99.90;;;;;;5115416;28;20031;-65
2023/07/01 06:37:03;;;;;;;31.42;12.68;;;21.90;99.90;;;;;;5115444;28;20035;-65
2023/07/01 06:39:30;;;;;;;30.27;12.57;;;22.00;99.90;;;;;;5115750;28;20028;-65
2023/07/01 06:41:56;;;;;;;27.98;12.30;;;22.10;99.90;;;;;;5115514;28;20034;-65
2023/07/01 06:44:22;;;;;;;19.65;12.07;;;22.20;99.90;;;;;;5115406;28;20059;-64
2023/07/01 06:46:48;;;;;;;26.75;11.63;;;22.20;99.90;;;;;;5135693;27;20038;-65
2023/07/01 06:49:14;;;;;;;19.67;11.68;;;22.70;99.90;;;;;;5135955;27;20027;-65
2023/07/01 06:51:41;;;;;;;16.88;10.90;;;23.10;99.90;;;;;;5135562;27;20048;-65
2023/07/01 06:54:09;;;;;;;20.42;11.15;;;23.30;99.90;;;;;;5135798;27;20027;-63
2023/07/01 06:56:35;;;;;;;14.38;9.77;;;23.60;99.90;;;;;;5135795;27;20110;-64
2023/07/01 06:59:01;;;;;;;20.38;10.55;;;24.00;99.90;;;;;;5135711;27;20062;-65
2023/07/01 07:01:27;;;;;;;22.75;10.68;;;24.20;99.90;;;;;;5135578;27;20095;-64
2023/07/01 07:03:53;;;;;;;19.85;10.82;;;24.40;99.90;;;;;;5135735;27;20438;-65
2023/07/01 07:06:19;;;;;;;21.50;11.20;;;24.40;98.20;;;;;;5135603;27;20221;-64
2023/07/01 07:08:45;;;;;;;23.27;10.75;;;24.40;99.10;;;;;;5135675;27;20699;-64
2023/07/01 07:11:10;;;;;;;26.13;10.63;;;24.50;99.30;;;;;;5135490;27;20035;-64
2023/07/01 07:13:36;;;;;;;20.20;10.35;;;24.50;98.30;;;;;;5135507;27;20092;-64
2023/07/01 07:16:02;;;;;;;17.38;10.27;;;24.50;98.00;;;;;;5135364;27;20461;-64
2023/07/01 07:18:28;;;;;;;15.57;10.10;;;24.60;98.00;;;;;;5135633;27;20051;-64
2023/07/01 07:20:54;;;;;;;15.60;9.18;;;24.60;98.90;;;;;;5135371;27;20388;-64
2023/07/01 07:23:20;;;;;;;14.52;9.07;;;25.00;94.80;;;;;;5135419;28;20034;-65
2023/07/01 07:25:46;;;;;;;14.93;8.40;;;25.20;92.00;;;;;;5135114;27;20031;-65
2023/07/01 07:28:12;;;;;;;16.05;9.10;;;25.30;91.50;;;;;;5135434;28;20058;-65
2023/07/01 07:30:38;;;;;;;16.88;8.27;;;25.40;92.90;;;;;;5135362;28;20015;-65
2023/07/01 07:33:04;;;;;;;20.05;9.77;;;25.50;92.60;;;;;;5135436;28;20031;-65
2023/07/01 07:35:30;;;;;;;18.95;9.40;;;25.70;91.60;;;;;;5135279;28;20038;-65
2023/07/01 07:37:56;;;;;;;16.15;8.93;;;26.10;95.40;;;;;;5135255;28;20370;-65
2023/07/01 07:40:22;;;;;;;13.80;8.95;;;26.10;92.90;;;;;;5135268;28;20027;-65
2023/07/01 07:42:53;;;;;;;15.55;8.43;;;25.90;92.10;;;;;;5135394;28;20030;-64
2023/07/01 07:45:21;;;;;;;18.95;9.00;;;25.90;94.60;;;;;;5127347;28;20028;-64
2023/07/01 07:47:46;;;;;;;21.83;8.93;;;26.00;92.90;;;;;;5114650;28;20039;-64
2023/07/01 07:50:13;;;;;;;9.93;6.97;;;26.10;92.20;;;;;;5114615;28;20024;-64
2023/07/01 07:52:39;;;;;;;11.93;6.50;;;26.70;84.10;;;;;;5114812;28;20066;-65
2023/07/01 07:55:05;;;;;;;13.82;7.03;;;27.20;77.70;;;;;;5114679;28;20059;-65
2023/07/01 07:57:31;;;;;;;13.23;6.88;;;27.70;74.90;;;;;;5114595;28;20477;-64
2023/07/01 07:59:58;;;;;;;17.80;7.25;;;28.00;77.10;;;;;;5114699;28;20024;-65
2023/07/01 08:02:24;;;;;;;21.90;6.72;;;28.00;68.10;;;;;;5114426;28;20035;-66
2023/07/01 08:04:50;;;;;;;10.05;5.97;;;27.90;64.80;;;;;;5114373;28;20470;-65
2023/07/01 08:07:16;;;;;;;12.55;6.05;;;28.20;66.70;;;;;;5114586;28;20023;-65
2023/07/01 08:09:42;;;;;;;10.55;6.15;;;28.30;60.50;;;;;;5114457;28;20088;-65
2023/07/01 08:12:09;;;;;;;9.20;5.93;;;27.60;59.90;;;;;;5114235;28;20032;-65
2023/07/01 08:14:34;;;;;;;9.48;5.43;;;28.20;61.90;;;;;;5114395;28;20366;-65
2023/07/01 08:17:00;;;;;;;13.73;6.43;;;28.70;58.20;;;;;;5105630;28;20102;-65
2023/07/01 08:19:26;;;;;;;7.95;5.50;;;29.40;59.70;;;;;;5093873;28;20039;-65
2023/07/01 08:21:54;;;;;;;10.18;5.20;;;29.80;54.70;;;;;;5094024;28;20032;-65
2023/07/01 08:24:21;;;;;;;9.98;5.82;;;29.80;55.00;;;;;;5094004;28;20103;-65
2023/07/01 08:26:47;;;;;;;8.70;5.40;;;29.70;52.30;;;;;;5093947;28;20112;-65
2023/07/01 08:29:13;;;;;;;11.57;5.57;;;30.10;52.10;;;;;;5094178;28;20064;-65
2023/07/01 08:31:40;;;;;;;9.50;5.65;;;30.70;52.20;;;;;;5093805;28;20028;-65
2023/07/01 08:34:06;;;;;;;11.85;5.82;;;31.10;50.30;;;;;;5093940;28;20036;-65
2023/07/01 08:36:32;;;;;;;12.43;6.32;;;30.50;50.10;;;;;;5093828;28;20478;-65
2023/07/01 08:38:58;;;;;;;17.40;6.53;;;30.40;53.60;;;;;;5097443;28;20094;-65
2023/07/01 08:41:25;;;;;;;12.45;5.50;;;30.40;54.70;;;;;;5097290;28;20028;-65
2023/07/01 08:43:53;;;;;;;11.35;5.75;;;30.00;53.90;;;;;;5097397;28;20064;-65
2023/07/01 08:46:19;;;;;;;9.95;5.50;;;30.00;51.90;;;;;;5129475;27;20027;-65
2023/07/01 08:48:46;;;;;;;9.77;5.75;;;30.40;58.10;;;;;;5138199;27;20030;-65
2023/07/01 08:51:25;;;;;;;7.45;5.63;;;30.80;54.70;;;;;;5138284;27;20023;-65
2023/07/01 08:53:52;;;;;;;10.57;5.40;;;30.90;51.10;;;;;;5138024;27;20034;-65
2023/07/01 08:56:21;;;;;;;8.20;5.78;;;31.10;49.70;;;;;;5137991;27;20023;-65
2023/07/01 08:58:48;;;;;;;10.43;5.93;;;30.90;50.10;;;;;;5138146;27;20047;-65
2023/07/01 09:01:15;;;;;;;7.57;4.80;;;30.30;53.30;;;;;;5137910;27;20316;-65
2023/07/01 09:03:42;;;;;;;8.50;4.90;;;30.30;52.20;;;;;;5137977;27;20106;-65
2023/07/01 09:06:08;;;;;;;7.45;4.85;;;30.10;49.80;;;;;;5138014;27;20141;-65
2023/07/01 09:08:40;;;;;;;7.78;4.93;;;29.80;53.00;;;;;;5137717;27;20068;-65
2023/07/01 09:11:10;;;;;;;13.15;5.28;;;30.00;48.00;;;;;;5137682;27;20079;-65
2023/07/01 09:13:36;;;;;;;8.82;4.30;;;30.10;46.00;;;;;;5137830;27;20554;-65
2023/07/01 09:16:02;;;;;;;7.70;4.80;;;29.90;46.40;;;;;;5138025;27;20115;-65
2023/07/01 09:18:29;;;;;;;7.55;5.20;;;29.40;47.10;;;;;;5158457;27;20200;-65
2023/07/01 09:20:56;;;;;;;7.40;5.25;;;29.20;55.90;;;;;;5158251;27;20023;-65
2023/07/01 09:23:26;;;;;;;8.68;5.38;;;29.70;53.80;;;;;;5158381;27;20033;-65
2023/07/01 09:26:14;;;;;;;13.18;5.90;;;30.00;50.00;;;;;;5158133;27;20019;-65
2023/07/01 09:28:59;;;;;;;11.73;5.68;;;30.30;53.10;;;;;;5158175;27;20088;-65
2023/07/01 09:31:28;;;;;;;12.40;5.93;;;30.30;49.90;;;;;;5158052;27;20030;-65
2023/07/01 09:33:58;;;;;;;12.00;6.90;;;30.10;53.80;;;;;;5158104;27;20460;-65
2023/07/01 09:36:25;;;;;;;13.25;5.93;;;30.20;54.30;;;;;;5157957;27;20027;-65
2023/07/01 09:38:52;;;;;;;9.02;5.80;;;30.20;51.50;;;;;;5157870;27;20022;-65
2023/07/01 09:41:20;;;;;;;13.23;6.30;;;29.90;57.50;;;;;;5158057;27;20369;-65
2023/07/01 09:43:48;;;;;;;8.57;5.30;;;29.90;56.50;;;;;;5157774;27;20048;-65
2023/07/01 09:46:14;;;;;;;9.45;5.97;;;29.50;60.50;;;;;;5157791;27;20498;-65
2023/07/01 09:48:56;;;;;;;10.15;6.60;;;29.40;58.10;;;;;;5157342;27;20329;-65
2023/07/01 09:51:26;;;;;;;11.15;6.95;;;29.40;54.90;;;;;;5157500;27;20057;-65
2023/07/01 09:53:52;;;;;;;11.73;7.18;;;29.40;56.80;;;;;;5157727;27;20042;-65
2023/07/01 09:56:19;;;;;;;11.23;7.72;;;29.20;56.40;;;;;;5157738;27;20053;-65
2023/07/01 09:58:47;;;;;;;14.63;8.55;;;29.00;59.50;;;;;;5157704;27;20030;-65
2023/07/01 10:01:15;;;;;;;26.33;9.05;;;28.70;59.00;;;;;;5157492;27;20507;-65
2023/07/01 10:03:42;;;;;;;14.07;9.25;;;28.80;62.40;;;;;;5157554;27;20034;-65
2023/07/01 10:06:09;;;;;;;13.35;8.98;;;28.70;61.30;;;;;;5157508;27;20031;-65
2023/07/01 10:08:35;;;;;;;17.52;9.80;;;28.50;60.90;;;;;;5157511;27;20027;-65
2023/07/01 10:11:09;;;;;;;13.13;8.27;;;28.60;61.60;;;;;;5157173;27;20042;-65
2023/07/01 10:13:42;;;;;;;14.32;8.38;;;28.20;61.60;;;;;;5157196;27;20088;-65
2023/07/01 10:16:08;;;;;;;11.88;6.03;;;28.00;63.60;;;;;;5157169;27;20038;-65
2023/07/01 10:18:35;;;;;;;21.55;7.13;;;27.80;58.10;;;;;;5157482;27;20186;-64
2023/07/01 10:21:23;;;;;;;8.82;5.50;;;27.40;55.40;;;;;;5157293;27;20034;-65
2023/07/01 10:23:53;;;;;;;12.77;5.95;;;26.90;55.60;;;;;;5157227;27;20026;-65
2023/07/01 10:26:53;;;;;;;14.05;6.53;;;26.40;56.70;;;;;;5157022;27;20027;-64
2023/07/01 10:29:29;;;;;;;13.27;5.07;;;26.30;57.40;;;;;;5157012;27;20464;-65
2023/07/01 10:32:11;;;;;;;8.18;4.80;;;26.00;56.50;;;;;;5156924;27;20536;-66
2023/07/01 10:35:03;;;;;;;8.52;4.82;;;25.70;55.80;;;;;;5156724;27;20035;-65
2023/07/01 10:37:31;;;;;;;8.73;5.82;;;25.40;57.70;;;;;;5152948;27;20500;-65
2023/07/01 10:39:58;;;;;;;8.75;4.70;;;25.10;59.60;;;;;;5156896;27;20019;-65
2023/07/01 10:42:31;;;;;;;8.05;4.60;;;25.00;59.30;;;;;;5156762;27;20027;-65
2023/07/01 10:45:12;;;;;;;6.78;4.93;;;24.80;60.40;;;;;;5151966;27;20034;-65
2023/07/01 10:47:45;;;;;;;9.30;5.40;;;24.60;62.50;;;;;;5135953;27;20015;-65
2023/07/01 10:50:13;;;;;;;7.25;5.10;;;24.40;63.10;;;;;;5135869;27;20023;-64
2023/07/01 10:55:40;;;;;;;17.65;7.55;;;23.90;67.30;;;;;;5135691;27;20057;-65
2023/07/01 10:58:23;;;;;;;15.75;8.32;;;23.70;68.30;;;;;;5135857;27;20031;-66
2023/07/01 11:00:51;;;;;;;8.18;5.15;;;23.30;76.00;;;;;;5135137;27;20047;-65
2023/07/01 11:03:36;;;;;;;10.02;6.28;;;23.30;74.50;;;;;;5135758;27;20053;-65
2023/07/01 11:06:10;;;;;;;11.48;5.32;;;23.20;78.60;;;;;;5135925;27;20084;-64
2023/07/01 11:08:53;;;;;;;9.43;5.38;;;23.20;77.60;;;;;;5135636;27;20057;-65
2023/07/01 11:11:27;;;;;;;13.40;6.63;;;23.20;79.20;;;;;;5135310;27;20042;-66
2023/07/01 11:13:57;;;;;;;8.85;5.78;;;23.00;82.20;;;;;;5136005;27;20088;-65
2023/07/01 11:16:25;;;;;;;15.02;7.18;;;23.00;82.60;;;;;;5138766;27;20054;-66
2023/07/01 11:18:53;;;;;;;10.35;6.38;;;23.00;87.00;;;;;;5156190;27;20249;-65
2023/07/01 11:21:21;;;;;;;8.07;5.55;;;22.70;90.00;;;;;;5156312;27;20026;-65
2023/07/01 11:24:05;;;;;;;8.90;5.78;;;22.80;91.60;;;;;;5156247;27;20031;-65
2023/07/01 11:26:34;;;;;;;10.93;5.85;;;22.80;92.70;;;;;;5156067;27;20027;-65
2023/07/01 11:29:00;;;;;;;10.27;5.65;;;22.90;92.20;;;;;;5156135;27;20050;-65
2023/07/01 11:31:34;;;;;;;11.05;5.57;;;23.00;91.10;;;;;;5155944;27;20062;-65
2023/07/01 11:34:01;;;;;;;14.60;6.57;;;23.00;92.50;;;;;;5156097;27;20402;-64
2023/07/01 11:36:39;;;;;;;9.38;5.40;;;23.10;93.10;;;;;;5156208;27;20050;-64
2023/07/01 11:39:13;;;;;;;10.50;5.80;;;23.00;94.60;;;;;;5155685;27;20483;-64
2023/07/01 11:41:44;;;;;;;8.75;5.75;;;22.90;94.80;;;;;;5155965;27;20034;-64
2023/07/01 11:44:12;;;;;;;11.18;6.07;;;22.90;96.00;;;;;;5155951;27;20038;-64
2023/07/01 11:46:41;;;;;;;9.52;5.93;;;22.90;98.60;;;;;;5155704;27;20061;-64
2023/07/01 11:49:22;;;;;;;8.32;5.78;;;22.80;99.90;;;;;;5155920;27;20064;-64
2023/07/01 11:51:50;;;;;;;12.90;6.15;;;22.60;99.90;;;;;;5155853;27;20026;-64
2023/07/01 11:54:18;;;;;;;8.32;5.45;;;22.80;99.90;;;;;;5155882;27;20023;-64
2023/07/01 11:56:45;;;;;;;9.60;6.00;;;22.80;99.90;;;;;;5156161;27;20067;-64
2023/07/01 11:59:12;;;;;;;9.23;5.63;;;22.90;99.90;;;;;;5155885;27;20399;-65
2023/07/01 12:01:41;;;;;;;8.32;5.18;;;22.80;99.90;;;;;;5155760;27;20035;-65
2023/07/01 12:04:17;;;;;;;9.88;5.78;;;22.80;99.90;;;;;;5155769;27;20026;-64
2023/07/01 12:06:43;;;;;;;9.85;6.10;;;22.80;99.90;;;;;;5155868;27;20045;-65
2023/07/01 12:09:09;;;;;;;8.98;5.68;;;22.90;99.90;;;;;;5155592;27;20080;-65
2023/07/01 12:11:48;;;;;;;8.77;5.82;;;22.90;99.90;;;;;;5157181;27;20027;-65
2023/07/01 12:14:23;;;;;;;7.03;5.15;;;23.00;99.90;;;;;;5159868;27;20030;-65
2023/07/01 12:16:50;;;;;;;8.25;5.47;;;23.20;99.90;;;;;;5159249;27;20039;-65
2023/07/01 12:19:17;;;;;;;8.50;5.38;;;23.40;99.90;;;;;;5159565;27;20042;-65
2023/07/01 12:21:44;;;;;;;8.20;5.28;;;23.60;99.90;;;;;;5159568;27;20035;-65
2023/07/01 12:24:23;;;;;;;8.20;5.43;;;23.70;99.90;;;;;;5159304;27;20027;-65
2023/07/01 12:27:03;;;;;;;7.18;5.57;;;23.60;99.90;;;;;;5159316;27;20411;-65
2023/07/01 12:29:29;;;;;;;10.32;5.80;;;23.70;99.90;;;;;;5159411;27;20027;-65
2023/07/01 12:31:57;;;;;;;10.52;6.07;;;23.90;99.90;;;;;;5159197;27;20034;-65
2023/07/01 12:34:24;;;;;;;8.18;6.05;;;24.20;99.90;;;;;;5159211;27;20034;-65
2023/07/01 12:36:53;;;;;;;9.15;4.80;;;24.00;99.90;;;;;;5159202;27;20035;-65
2023/07/01 12:39:19;;;;;;;10.40;4.97;;;24.20;99.90;;;;;;5159269;27;20019;-65
2023/07/01 12:41:52;;;;;;;7.30;5.40;;;24.30;99.90;;;;;;5159017;27;20033;-65